SWA3968 KPVD-KDCA
Flight info
| Callsign | SWA3968 |
|---|---|
| Flight time | N/A |
| Altitude | 36000 |
| Route | DCT JUMPR DCT RIFLE Q167 ZIZZI DCT KNUKK DCT ATR DCT LAFLN DEALE3 |
| Aircraft | B738/M-SADE2E3GIJ4RWZ/LB1D1 |
Departure
| Time | 2026-05-05 20:17 |
|---|---|
| Airport | Rhode Island T. F. Green International Airport (KPVD) |
Arrival
| Time | N/A |
|---|---|
| Airport | Ronald Reagan Washington National Airport (KDCA) |
| Time | Latitude | Longitude | Altitude | Speed | Heading |
|---|---|---|---|---|---|
| 2026-05-05 20:04 | 41.72774 | -71.43423 | 65 ft | 0 kts | 150° |
| 2026-05-05 20:11 | 41.72778 | -71.43426 | 65 ft | 2 kts | 149° |
| 2026-05-05 20:11 | 41.72792 | -71.43437 | 56 ft | 2 kts | 147° |
| 2026-05-05 20:12 | 41.72805 | -71.43452 | 62 ft | 2 kts | 102° |
| 2026-05-05 20:12 | 41.72804 | -71.43468 | 56 ft | 1 kts | 66° |
| 2026-05-05 20:12 | 41.72803 | -71.43470 | 56 ft | 0 kts | 66° |
| 2026-05-05 20:14 | 41.72805 | -71.43466 | 64 ft | 2 kts | 62° |
| 2026-05-05 20:14 | 41.72830 | -71.43442 | 57 ft | 11 kts | 35° |
| 2026-05-05 20:14 | 41.72900 | -71.43357 | 65 ft | 14 kts | 43° |
| 2026-05-05 20:15 | 41.73010 | -71.43280 | 60 ft | 22 kts | 17° |
| 2026-05-05 20:15 | 41.73082 | -71.43252 | 60 ft | 0 kts | 21° |
| 2026-05-05 20:15 | 41.73090 | -71.43248 | 59 ft | 7 kts | 24° |
| 2026-05-05 20:16 | 41.73141 | -71.43211 | 63 ft | 2 kts | 54° |
| 2026-05-05 20:16 | 41.73132 | -71.43186 | 60 ft | 5 kts | 125° |
| 2026-05-05 20:16 | 41.73071 | -71.43115 | 57 ft | 28 kts | 142° |
| 2026-05-05 20:16 | 41.72700 | -71.42724 | 54 ft | 107 kts | 142° |
| 2026-05-05 20:17 | 41.71955 | -71.41932 | 153 ft | 156 kts | 143° |
| 2026-05-05 20:17 | 41.71100 | -71.41014 | 819 ft | 167 kts | 142° |
| 2026-05-05 20:17 | 41.70078 | -71.40056 | 1541 ft | 188 kts | 156° |
| 2026-05-05 20:17 | 41.68804 | -71.39787 | 2387 ft | 192 kts | 190° |
| 2026-05-05 20:18 | 41.67541 | -71.40203 | 3423 ft | 187 kts | 195° |
| 2026-05-05 20:18 | 41.66194 | -71.40243 | 4157 ft | 202 kts | 169° |
| 2026-05-05 20:18 | 41.64807 | -71.39733 | 4826 ft | 210 kts | 166° |
| 2026-05-05 20:18 | 41.63346 | -71.39297 | 5399 ft | 218 kts | 168° |
| 2026-05-05 20:19 | 41.61834 | -71.38815 | 5832 ft | 234 kts | 166° |
| 2026-05-05 20:19 | 41.60166 | -71.38249 | 6124 ft | 257 kts | 166° |
| 2026-05-05 20:19 | 41.58403 | -71.37656 | 6850 ft | 264 kts | 166° |
| 2026-05-05 20:19 | 41.56608 | -71.37064 | 7706 ft | 267 kts | 166° |
| 2026-05-05 20:20 | 41.54794 | -71.36474 | 8551 ft | 270 kts | 167° |
| 2026-05-05 20:20 | 41.52957 | -71.35885 | 9402 ft | 273 kts | 167° |
| 2026-05-05 20:20 | 41.51095 | -71.35293 | 10248 ft | 277 kts | 167° |
| 2026-05-05 20:20 | 41.49209 | -71.34698 | 11088 ft | 282 kts | 167° |
| 2026-05-05 20:21 | 41.47223 | -71.34074 | 11433 ft | 307 kts | 167° |
| 2026-05-05 20:21 | 41.45092 | -71.33406 | 12002 ft | 320 kts | 167° |
| 2026-05-05 20:21 | 41.42906 | -71.32722 | 12825 ft | 325 kts | 167° |
| 2026-05-05 20:21 | 41.40699 | -71.32033 | 13698 ft | 328 kts | 167° |
| 2026-05-05 20:22 | 41.38465 | -71.31336 | 14557 ft | 332 kts | 167° |
| 2026-05-05 20:22 | 41.36199 | -71.30630 | 15398 ft | 336 kts | 167° |
| 2026-05-05 20:22 | 41.33908 | -71.29917 | 16243 ft | 340 kts | 167° |
| 2026-05-05 20:22 | 41.31587 | -71.29195 | 17062 ft | 345 kts | 167° |
| 2026-05-05 20:23 | 41.29237 | -71.28464 | 17853 ft | 349 kts | 167° |
| 2026-05-05 20:23 | 41.26863 | -71.27727 | 18621 ft | 353 kts | 167° |
| 2026-05-05 20:23 | 41.24454 | -71.26979 | 19371 ft | 357 kts | 167° |
| 2026-05-05 20:23 | 41.22017 | -71.26245 | 20098 ft | 361 kts | 171° |
| 2026-05-05 20:24 | 41.19504 | -71.26280 | 20766 ft | 365 kts | 193° |
| 2026-05-05 20:24 | 41.17165 | -71.27574 | 21473 ft | 368 kts | 215° |
| 2026-05-05 20:24 | 41.15333 | -71.29871 | 22146 ft | 370 kts | 234° |
| 2026-05-05 20:24 | 41.14068 | -71.32907 | 22800 ft | 374 kts | 244° |
| 2026-05-05 20:25 | 41.12957 | -71.36045 | 23407 ft | 378 kts | 245° |
| 2026-05-05 20:25 | 41.11860 | -71.39240 | 23996 ft | 382 kts | 246° |
| 2026-05-05 20:25 | 41.10755 | -71.42466 | 24587 ft | 386 kts | 245° |
| 2026-05-05 20:25 | 41.09633 | -71.45714 | 25167 ft | 389 kts | 245° |
| 2026-05-05 20:26 | 41.08494 | -71.48979 | 25722 ft | 393 kts | 245° |
| 2026-05-05 20:26 | 41.07335 | -71.52275 | 26266 ft | 396 kts | 245° |
| 2026-05-05 20:26 | 41.06182 | -71.55532 | 26913 ft | 395 kts | 245° |
| 2026-05-05 20:26 | 41.05017 | -71.58812 | 27627 ft | 392 kts | 245° |
| 2026-05-05 20:27 | 41.03859 | -71.62063 | 28338 ft | 389 kts | 245° |
| 2026-05-05 20:27 | 41.02706 | -71.65295 | 28996 ft | 387 kts | 245° |
| 2026-05-05 20:27 | 41.01555 | -71.68515 | 29568 ft | 387 kts | 245° |
| 2026-05-05 20:27 | 41.00404 | -71.71735 | 30135 ft | 387 kts | 245° |
| 2026-05-05 20:28 | 40.99254 | -71.74946 | 30714 ft | 385 kts | 245° |
| 2026-05-05 20:28 | 40.98108 | -71.78142 | 31271 ft | 384 kts | 245° |
| 2026-05-05 20:28 | 40.96963 | -71.81333 | 31793 ft | 384 kts | 245° |
| 2026-05-05 20:28 | 40.95819 | -71.84518 | 32293 ft | 383 kts | 245° |
| 2026-05-05 20:29 | 40.94672 | -71.87709 | 32638 ft | 387 kts | 245° |
| 2026-05-05 20:29 | 40.93498 | -71.90968 | 32698 ft | 398 kts | 244° |
| 2026-05-05 20:29 | 40.92294 | -71.94310 | 32791 ft | 407 kts | 244° |
| 2026-05-05 20:30 | 40.89801 | -72.01214 | 32949 ft | 425 kts | 244° |
| 2026-05-05 20:30 | 40.87208 | -72.08378 | 33168 ft | 438 kts | 244° |
| 2026-05-05 20:30 | 40.85887 | -72.12021 | 33396 ft | 441 kts | 244° |
| 2026-05-05 20:31 | 40.84562 | -72.15671 | 33792 ft | 440 kts | 244° |
| 2026-05-05 20:31 | 40.83241 | -72.19306 | 34239 ft | 437 kts | 244° |
| 2026-05-05 20:31 | 40.81927 | -72.22915 | 34631 ft | 436 kts | 244° |
| 2026-05-05 20:31 | 40.80613 | -72.26519 | 34954 ft | 436 kts | 244° |
| 2026-05-05 20:32 | 40.79296 | -72.30129 | 35275 ft | 436 kts | 244° |
| 2026-05-05 20:32 | 40.77981 | -72.33729 | 35629 ft | 435 kts | 244° |
| 2026-05-05 20:32 | 40.76669 | -72.37316 | 35957 ft | 434 kts | 244° |
| 2026-05-05 20:33 | 40.74015 | -72.44559 | 36002 ft | 440 kts | 244° |
| 2026-05-05 20:33 | 40.71361 | -72.51787 | 35988 ft | 434 kts | 244° |
| 2026-05-05 20:34 | 40.68363 | -72.58579 | 36001 ft | 432 kts | 231° |
| 2026-05-05 20:34 | 40.64059 | -72.64090 | 36008 ft | 433 kts | 221° |
| 2026-05-05 20:34 | 40.61754 | -72.66684 | 35818 ft | 440 kts | 220° |
| 2026-05-05 20:35 | 40.59397 | -72.69327 | 35448 ft | 449 kts | 220° |
| 2026-05-05 20:35 | 40.57015 | -72.72012 | 35076 ft | 452 kts | 221° |
| 2026-05-05 20:35 | 40.54636 | -72.74712 | 34704 ft | 450 kts | 221° |
| 2026-05-05 20:35 | 40.52283 | -72.77396 | 34329 ft | 447 kts | 221° |
| 2026-05-05 20:36 | 40.49934 | -72.80082 | 34033 ft | 447 kts | 221° |
| 2026-05-05 20:36 | 40.45219 | -72.85477 | 34008 ft | 451 kts | 221° |
| 2026-05-05 20:37 | 40.40483 | -72.90884 | 33993 ft | 451 kts | 221° |
| 2026-05-05 20:37 | 40.35759 | -72.96266 | 33994 ft | 449 kts | 221° |
| 2026-05-05 20:38 | 40.31047 | -73.01624 | 33999 ft | 448 kts | 221° |
| 2026-05-05 20:38 | 40.26345 | -73.06960 | 34002 ft | 447 kts | 221° |
| 2026-05-05 20:39 | 40.21635 | -73.12290 | 34000 ft | 447 kts | 221° |
| 2026-05-05 20:39 | 40.16908 | -73.17625 | 34010 ft | 451 kts | 221° |
| 2026-05-05 20:40 | 40.12150 | -73.22990 | 34002 ft | 452 kts | 221° |
| 2026-05-05 20:40 | 40.07384 | -73.28350 | 34002 ft | 452 kts | 221° |
| 2026-05-05 20:41 | 40.02643 | -73.33663 | 34000 ft | 452 kts | 221° |
| 2026-05-05 20:41 | 39.97872 | -73.39002 | 34001 ft | 452 kts | 221° |
| 2026-05-05 20:42 | 39.93103 | -73.44330 | 34001 ft | 451 kts | 221° |
| 2026-05-05 20:42 | 39.88338 | -73.49647 | 34001 ft | 451 kts | 220° |
| 2026-05-05 20:43 | 39.83570 | -73.54954 | 34002 ft | 451 kts | 220° |
| 2026-05-05 20:43 | 39.78806 | -73.60244 | 34002 ft | 450 kts | 220° |
| 2026-05-05 20:44 | 39.74040 | -73.65529 | 34002 ft | 450 kts | 220° |
| 2026-05-05 20:44 | 39.69279 | -73.70801 | 34001 ft | 450 kts | 220° |
| 2026-05-05 20:45 | 39.62136 | -73.78693 | 34002 ft | 450 kts | 220° |
| 2026-05-05 20:45 | 39.57367 | -73.83948 | 33999 ft | 450 kts | 220° |
| 2026-05-05 20:46 | 39.52597 | -73.89196 | 34000 ft | 450 kts | 220° |
| 2026-05-05 20:46 | 39.47825 | -73.94437 | 34001 ft | 450 kts | 220° |
| 2026-05-05 20:47 | 39.43051 | -73.99671 | 34000 ft | 450 kts | 220° |
| 2026-05-05 20:47 | 39.38264 | -74.04911 | 33668 ft | 453 kts | 220° |
| 2026-05-05 20:48 | 39.35871 | -74.07529 | 33163 ft | 446 kts | 220° |
| 2026-05-05 20:48 | 39.33520 | -74.10101 | 32656 ft | 440 kts | 220° |
| 2026-05-05 20:48 | 39.31197 | -74.12641 | 32157 ft | 434 kts | 220° |
| 2026-05-05 20:48 | 39.28903 | -74.15147 | 31661 ft | 431 kts | 220° |
| 2026-05-05 20:49 | 39.26608 | -74.17652 | 31170 ft | 432 kts | 220° |
| 2026-05-05 20:49 | 39.24315 | -74.20153 | 30674 ft | 432 kts | 220° |
| 2026-05-05 20:49 | 39.22016 | -74.22657 | 30179 ft | 433 kts | 220° |
| 2026-05-05 20:49 | 39.19699 | -74.25179 | 29695 ft | 439 kts | 220° |
| 2026-05-05 20:50 | 39.17351 | -74.27734 | 29195 ft | 443 kts | 220° |
| 2026-05-05 20:50 | 39.15788 | -74.29431 | 28865 ft | 443 kts | 220° |
| 2026-05-05 20:50 | 39.12674 | -74.32813 | 28208 ft | 442 kts | 220° |
| 2026-05-05 20:50 | 39.10325 | -74.35360 | 27705 ft | 441 kts | 220° |
| 2026-05-05 20:51 | 39.07947 | -74.37937 | 27202 ft | 441 kts | 220° |
| 2026-05-05 20:51 | 39.05631 | -74.40445 | 26710 ft | 441 kts | 220° |
| 2026-05-05 20:51 | 39.03284 | -74.42985 | 26215 ft | 441 kts | 220° |
| 2026-05-05 20:51 | 39.00932 | -74.45527 | 25717 ft | 442 kts | 220° |
| 2026-05-05 20:52 | 38.98575 | -74.48072 | 25220 ft | 443 kts | 220° |
| 2026-05-05 20:52 | 38.96304 | -74.50737 | 24708 ft | 443 kts | 228° |
| 2026-05-05 20:52 | 38.94483 | -74.53909 | 24213 ft | 441 kts | 239° |
| 2026-05-05 20:52 | 38.93151 | -74.57436 | 23719 ft | 438 kts | 250° |
| 2026-05-05 20:53 | 38.92341 | -74.61177 | 23222 ft | 431 kts | 257° |
| 2026-05-05 20:53 | 38.91669 | -74.64900 | 22717 ft | 424 kts | 257° |
| 2026-05-05 20:53 | 38.90997 | -74.68568 | 22214 ft | 421 kts | 256° |
| 2026-05-05 20:53 | 38.90298 | -74.72207 | 21722 ft | 419 kts | 256° |
| 2026-05-05 20:54 | 38.89582 | -74.75824 | 21221 ft | 417 kts | 256° |
| 2026-05-05 20:54 | 38.88884 | -74.79425 | 20722 ft | 414 kts | 256° |
| 2026-05-05 20:54 | 38.88209 | -74.83009 | 20223 ft | 412 kts | 256° |
| 2026-05-05 20:54 | 38.87543 | -74.86572 | 19724 ft | 410 kts | 256° |
| 2026-05-05 20:55 | 38.86881 | -74.90115 | 19225 ft | 407 kts | 256° |
| 2026-05-05 20:55 | 38.86220 | -74.93639 | 18725 ft | 404 kts | 256° |
| 2026-05-05 20:55 | 38.85561 | -74.97132 | 18236 ft | 401 kts | 256° |
| 2026-05-05 20:55 | 38.84908 | -75.00583 | 18057 ft | 397 kts | 256° |
| 2026-05-05 20:56 | 38.84256 | -75.04022 | 18007 ft | 397 kts | 256° |
| 2026-05-05 20:56 | 38.83824 | -75.06296 | 18004 ft | 396 kts | 256° |
| 2026-05-05 20:56 | 38.83171 | -75.09729 | 18009 ft | 397 kts | 256° |
| 2026-05-05 20:56 | 38.82516 | -75.13166 | 17996 ft | 397 kts | 256° |
| 2026-05-05 20:57 | 38.81639 | -75.17757 | 17999 ft | 396 kts | 256° |
| 2026-05-05 20:57 | 38.81206 | -75.20033 | 18003 ft | 396 kts | 257° |
| 2026-05-05 20:57 | 38.80749 | -75.23519 | 18005 ft | 397 kts | 264° |
| 2026-05-05 20:57 | 38.80529 | -75.27040 | 18003 ft | 397 kts | 266° |
| 2026-05-05 20:58 | 38.80347 | -75.30572 | 18005 ft | 397 kts | 266° |
| 2026-05-05 20:58 | 38.80161 | -75.34100 | 18002 ft | 397 kts | 266° |
| 2026-05-05 20:58 | 38.79960 | -75.37638 | 17999 ft | 397 kts | 265° |
| 2026-05-05 20:58 | 38.79746 | -75.41161 | 18003 ft | 397 kts | 265° |
| 2026-05-05 20:59 | 38.79524 | -75.44687 | 18004 ft | 397 kts | 265° |
| 2026-05-05 20:59 | 38.79299 | -75.48208 | 18006 ft | 397 kts | 265° |
| 2026-05-05 20:59 | 38.79072 | -75.51735 | 18009 ft | 397 kts | 265° |
| 2026-05-05 20:59 | 38.78846 | -75.55254 | 17991 ft | 397 kts | 265° |
| 2026-05-05 21:00 | 38.78618 | -75.58779 | 18005 ft | 396 kts | 265° |
| 2026-05-05 21:00 | 38.78391 | -75.62301 | 18006 ft | 397 kts | 265° |
| 2026-05-05 21:00 | 38.78162 | -75.65819 | 18000 ft | 396 kts | 265° |
| 2026-05-05 21:00 | 38.77935 | -75.69294 | 17896 ft | 385 kts | 265° |
| 2026-05-05 21:01 | 38.77714 | -75.72676 | 17384 ft | 374 kts | 265° |
| 2026-05-05 21:01 | 38.77497 | -75.75969 | 16914 ft | 368 kts | 265° |
| 2026-05-05 21:01 | 38.77284 | -75.79206 | 16439 ft | 363 kts | 265° |
| 2026-05-05 21:01 | 38.77071 | -75.82406 | 15963 ft | 358 kts | 265° |
| 2026-05-05 21:02 | 38.76861 | -75.85559 | 15491 ft | 352 kts | 265° |
| 2026-05-05 21:02 | 38.76656 | -75.88630 | 15005 ft | 340 kts | 265° |
| 2026-05-05 21:02 | 38.76454 | -75.91641 | 14541 ft | 339 kts | 265° |
| 2026-05-05 21:02 | 38.76252 | -75.94641 | 14063 ft | 337 kts | 265° |
| 2026-05-05 21:03 | 38.76051 | -75.97621 | 13594 ft | 335 kts | 265° |
| 2026-05-05 21:03 | 38.75850 | -76.00584 | 13118 ft | 333 kts | 265° |
| 2026-05-05 21:03 | 38.75649 | -76.03535 | 12644 ft | 331 kts | 265° |
| 2026-05-05 21:03 | 38.75459 | -76.06466 | 12169 ft | 330 kts | 267° |
| 2026-05-05 21:04 | 38.75536 | -76.09395 | 11686 ft | 328 kts | 275° |
| 2026-05-05 21:04 | 38.75810 | -76.12284 | 11223 ft | 326 kts | 278° |
| 2026-05-05 21:04 | 38.76129 | -76.15151 | 10744 ft | 324 kts | 278° |
| 2026-05-05 21:04 | 38.76442 | -76.17999 | 10289 ft | 322 kts | 278° |
| 2026-05-05 21:05 | 38.76736 | -76.20811 | 10168 ft | 317 kts | 277° |
| 2026-05-05 21:05 | 38.77017 | -76.23611 | 10127 ft | 316 kts | 277° |
| 2026-05-05 21:05 | 38.77284 | -76.26357 | 10121 ft | 312 kts | 277° |
| 2026-05-05 21:05 | 38.77545 | -76.29100 | 10111 ft | 309 kts | 277° |
| 2026-05-05 21:06 | 38.77801 | -76.31834 | 10123 ft | 310 kts | 277° |